BWA3542 TTPP-TTCP
Flight info
| Callsign | BWA3542 |
|---|---|
| Flight time | 0h 16m |
| Altitude | 9000 |
| Route | DCT SASIM DCT NOTEL DCT |
| Aircraft | AT76/M-SDFGIRY/S |
Departure
| Time | 2026-04-22 03:45 |
|---|---|
| Airport | Piarco International Airport (TTPP) |
Arrival
| Time | 2026-04-22 04:01 |
|---|---|
| Airport | A.N.R. Robinson International Airport (TTCP) |
| Time | Latitude | Longitude | Altitude | Speed | Heading |
|---|---|---|---|---|---|
| 2026-04-22 03:27 | 10.60074 | -61.33685 | 55 ft | 0 kts | 218° |
| 2026-04-22 03:41 | 10.60073 | -61.33686 | 55 ft | 0 kts | 218° |
| 2026-04-22 03:41 | 10.60027 | -61.33709 | 55 ft | 13 kts | 182° |
| 2026-04-22 03:41 | 10.59907 | -61.33689 | 55 ft | 10 kts | 180° |
| 2026-04-22 03:41 | 10.59868 | -61.33725 | 55 ft | 13 kts | 206° |
| 2026-04-22 03:42 | 10.59747 | -61.33730 | 55 ft | 19 kts | 187° |
| 2026-04-22 03:42 | 10.59698 | -61.33825 | 55 ft | 17 kts | 269° |
| 2026-04-22 03:42 | 10.59697 | -61.33945 | 54 ft | 16 kts | 270° |
| 2026-04-22 03:42 | 10.59697 | -61.34084 | 53 ft | 24 kts | 270° |
| 2026-04-22 03:43 | 10.59696 | -61.34284 | 52 ft | 31 kts | 269° |
| 2026-04-22 03:43 | 10.59691 | -61.34485 | 50 ft | 25 kts | 251° |
| 2026-04-22 03:43 | 10.59580 | -61.34523 | 50 ft | 16 kts | 178° |
| 2026-04-22 03:43 | 10.59531 | -61.34484 | 50 ft | 8 kts | 90° |
| 2026-04-22 03:44 | 10.59530 | -61.34417 | 51 ft | 11 kts | 90° |
| 2026-04-22 03:44 | 10.59532 | -61.34129 | 53 ft | 79 kts | 90° |
| 2026-04-22 03:44 | 10.59533 | -61.33367 | 155 ft | 124 kts | 90° |
| 2026-04-22 03:44 | 10.59532 | -61.32454 | 541 ft | 134 kts | 90° |
| 2026-04-22 03:45 | 10.59530 | -61.31492 | 953 ft | 140 kts | 90° |
| 2026-04-22 03:45 | 10.59524 | -61.30488 | 1363 ft | 145 kts | 90° |
| 2026-04-22 03:45 | 10.59518 | -61.29442 | 1774 ft | 149 kts | 90° |
| 2026-04-22 03:45 | 10.59511 | -61.28384 | 2179 ft | 151 kts | 90° |
| 2026-04-22 03:46 | 10.59503 | -61.27318 | 2581 ft | 152 kts | 90° |
| 2026-04-22 03:46 | 10.59493 | -61.26241 | 2982 ft | 153 kts | 90° |
| 2026-04-22 03:46 | 10.59483 | -61.25155 | 3326 ft | 160 kts | 90° |
| 2026-04-22 03:46 | 10.59472 | -61.23967 | 3637 ft | 174 kts | 90° |
| 2026-04-22 03:47 | 10.59837 | -61.22796 | 4023 ft | 181 kts | 49° |
| 2026-04-22 03:47 | 10.60908 | -61.22091 | 4451 ft | 185 kts | 26° |
| 2026-04-22 03:47 | 10.62085 | -61.21578 | 4853 ft | 189 kts | 22° |
| 2026-04-22 03:47 | 10.63314 | -61.21096 | 5256 ft | 192 kts | 21° |
| 2026-04-22 03:48 | 10.64573 | -61.20619 | 5660 ft | 195 kts | 21° |
| 2026-04-22 03:48 | 10.65864 | -61.20135 | 6068 ft | 197 kts | 21° |
| 2026-04-22 03:48 | 10.67143 | -61.19657 | 6467 ft | 198 kts | 21° |
| 2026-04-22 03:48 | 10.68450 | -61.19168 | 6700 ft | 208 kts | 21° |
| 2026-04-22 03:49 | 10.69857 | -61.18642 | 6743 ft | 224 kts | 21° |
| 2026-04-22 03:49 | 10.71374 | -61.18074 | 6748 ft | 238 kts | 21° |
| 2026-04-22 03:49 | 10.72950 | -61.17485 | 6746 ft | 248 kts | 21° |
| 2026-04-22 03:49 | 10.74586 | -61.16849 | 6733 ft | 256 kts | 26° |
| 2026-04-22 03:50 | 10.76170 | -61.15972 | 6736 ft | 262 kts | 30° |
| 2026-04-22 03:50 | 10.77774 | -61.15036 | 6737 ft | 266 kts | 31° |
| 2026-04-22 03:50 | 10.79381 | -61.14095 | 6738 ft | 270 kts | 30° |
| 2026-04-22 03:50 | 10.81009 | -61.13141 | 6738 ft | 272 kts | 30° |
| 2026-04-22 03:51 | 10.82664 | -61.12172 | 6738 ft | 274 kts | 30° |
| 2026-04-22 03:51 | 10.84331 | -61.11195 | 6737 ft | 275 kts | 30° |
| 2026-04-22 03:51 | 10.85996 | -61.10220 | 6737 ft | 276 kts | 30° |
| 2026-04-22 03:51 | 10.87662 | -61.09243 | 6737 ft | 277 kts | 30° |
| 2026-04-22 03:52 | 10.89326 | -61.08268 | 6737 ft | 278 kts | 30° |
| 2026-04-22 03:52 | 10.91016 | -61.07277 | 6737 ft | 278 kts | 30° |
| 2026-04-22 03:52 | 10.92685 | -61.06298 | 6737 ft | 278 kts | 30° |
| 2026-04-22 03:52 | 10.94377 | -61.05306 | 6737 ft | 279 kts | 30° |
| 2026-04-22 03:53 | 10.96043 | -61.04329 | 6737 ft | 279 kts | 30° |
| 2026-04-22 03:53 | 10.97752 | -61.03326 | 6737 ft | 279 kts | 30° |
| 2026-04-22 03:53 | 10.99428 | -61.02343 | 6737 ft | 279 kts | 30° |
| 2026-04-22 03:53 | 11.01137 | -61.01340 | 6722 ft | 280 kts | 30° |
| 2026-04-22 03:54 | 11.02835 | -61.00344 | 6419 ft | 288 kts | 30° |
| 2026-04-22 03:54 | 11.04522 | -60.99354 | 6053 ft | 273 kts | 30° |
| 2026-04-22 03:54 | 11.06140 | -60.98405 | 5627 ft | 258 kts | 30° |
| 2026-04-22 03:54 | 11.07651 | -60.97518 | 5191 ft | 247 kts | 30° |
| 2026-04-22 03:55 | 11.09091 | -60.96672 | 4758 ft | 237 kts | 30° |
| 2026-04-22 03:55 | 11.10516 | -60.95836 | 4316 ft | 230 kts | 30° |
| 2026-04-22 03:55 | 11.11873 | -60.95039 | 3885 ft | 224 kts | 30° |
| 2026-04-22 03:55 | 11.13220 | -60.94248 | 3449 ft | 219 kts | 30° |
| 2026-04-22 03:56 | 11.14513 | -60.93484 | 3021 ft | 215 kts | 32° |
| 2026-04-22 03:56 | 11.15376 | -60.92319 | 2836 ft | 198 kts | 66° |
| 2026-04-22 03:56 | 11.15547 | -60.90992 | 2554 ft | 189 kts | 99° |
| 2026-04-22 03:56 | 11.15436 | -60.89720 | 2396 ft | 171 kts | 95° |
| 2026-04-22 03:57 | 11.15369 | -60.88568 | 2191 ft | 159 kts | 86° |
| 2026-04-22 03:57 | 11.15846 | -60.87630 | 1982 ft | 147 kts | 38° |
| 2026-04-22 03:57 | 11.16765 | -60.87327 | 1788 ft | 137 kts | 355° |
| 2026-04-22 03:57 | 11.17643 | -60.87612 | 1599 ft | 129 kts | 321° |
| 2026-04-22 03:58 | 11.18058 | -60.88334 | 1466 ft | 116 kts | 277° |
| 2026-04-22 03:58 | 11.17850 | -60.89124 | 1272 ft | 122 kts | 229° |
| 2026-04-22 03:58 | 11.17160 | -60.89513 | 1325 ft | 113 kts | 188° |
| 2026-04-22 03:58 | 11.16393 | -60.89320 | 1243 ft | 116 kts | 144° |
| 2026-04-22 03:59 | 11.15821 | -60.88776 | 1218 ft | 108 kts | 135° |
| 2026-04-22 03:59 | 11.15414 | -60.88118 | 992 ft | 113 kts | 109° |
| 2026-04-22 03:59 | 11.15285 | -60.87358 | 864 ft | 105 kts | 94° |
| 2026-04-22 03:59 | 11.15229 | -60.86614 | 652 ft | 107 kts | 95° |
| 2026-04-22 04:00 | 11.15166 | -60.85873 | 508 ft | 100 kts | 94° |
| 2026-04-22 04:00 | 11.15116 | -60.85177 | 230 ft | 101 kts | 95° |
| 2026-04-22 04:00 | 11.15059 | -60.84473 | 86 ft | 98 kts | 94° |
| 2026-04-22 04:00 | 11.15008 | -60.83811 | 44 ft | 68 kts | 95° |
| 2026-04-22 04:01 | 11.14979 | -60.83602 | 46 ft | 11 kts | 102° |
| 2026-04-22 04:01 | 11.15004 | -60.83601 | 46 ft | 9 kts | 273° |
| 2026-04-22 04:01 | 11.15006 | -60.83672 | 45 ft | 10 kts | 270° |
| 2026-04-22 04:01 | 11.15007 | -60.83749 | 45 ft | 11 kts | 278° |
| 2026-04-22 04:02 | 11.15050 | -60.83814 | 44 ft | 11 kts | 317° |
| 2026-04-22 04:02 | 11.15105 | -60.83877 | 43 ft | 12 kts | 293° |
| 2026-04-22 04:02 | 11.15115 | -60.83967 | 43 ft | 13 kts | 274° |
| 2026-04-22 04:02 | 11.15120 | -60.84014 | 43 ft | 1 kts | 293° |
| 2026-04-22 04:03 | 11.15123 | -60.84051 | 42 ft | 10 kts | 274° |
| 2026-04-22 04:03 | 11.15172 | -60.84103 | 42 ft | 2 kts | 17° |
| 2026-04-22 04:03 | 11.15188 | -60.84095 | 42 ft | 0 kts | 9° |